sensor_id;sensor_type;location;lat;lon;timestamp;P1;durP1;ratioP1;P2;durP2;ratioP2
9898;SDS011;4988;49.238;6.698;2022-09-24T00:01:16;12.23;;;8.10;;
9898;SDS011;4988;49.238;6.698;2022-09-24T00:03:47;15.00;;;8.13;;
9898;SDS011;4988;49.238;6.698;2022-09-24T00:06:14;15.60;;;8.23;;
9898;SDS011;4988;49.238;6.698;2022-09-24T00:08:43;12.57;;;7.97;;
9898;SDS011;4988;49.238;6.698;2022-09-24T00:11:09;13.03;;;8.10;;
9898;SDS011;4988;49.238;6.698;2022-09-24T00:13:36;17.83;;;8.83;;
9898;SDS011;4988;49.238;6.698;2022-09-24T00:16:04;13.83;;;8.70;;
9898;SDS011;4988;49.238;6.698;2022-09-24T00:18:35;12.53;;;8.80;;
9898;SDS011;4988;49.238;6.698;2022-09-24T00:21:09;13.53;;;8.93;;
9898;SDS011;4988;49.238;6.698;2022-09-24T00:23:41;15.60;;;9.87;;
9898;SDS011;4988;49.238;6.698;2022-09-24T00:26:11;16.77;;;9.27;;
9898;SDS011;4988;49.238;6.698;2022-09-24T00:28:55;16.40;;;8.83;;
9898;SDS011;4988;49.238;6.698;2022-09-24T00:31:21;14.87;;;9.10;;
9898;SDS011;4988;49.238;6.698;2022-09-24T00:33:47;16.67;;;9.43;;
9898;SDS011;4988;49.238;6.698;2022-09-24T00:36:16;18.53;;;9.47;;
9898;SDS011;4988;49.238;6.698;2022-09-24T00:38:42;16.73;;;9.20;;
9898;SDS011;4988;49.238;6.698;2022-09-24T00:41:07;11.43;;;7.00;;
9898;SDS011;4988;49.238;6.698;2022-09-24T00:43:33;11.27;;;7.20;;
9898;SDS011;4988;49.238;6.698;2022-09-24T00:48:57;10.43;;;7.13;;
9898;SDS011;4988;49.238;6.698;2022-09-24T00:51:28;11.37;;;6.97;;
9898;SDS011;4988;49.238;6.698;2022-09-24T00:53:56;11.93;;;7.60;;
9898;SDS011;4988;49.238;6.698;2022-09-24T00:56:24;13.10;;;7.90;;
9898;SDS011;4988;49.238;6.698;2022-09-24T00:58:53;13.47;;;7.57;;
9898;SDS011;4988;49.238;6.698;2022-09-24T01:01:21;10.17;;;7.53;;
9898;SDS011;4988;49.238;6.698;2022-09-24T01:03:48;10.90;;;7.33;;
9898;SDS011;4988;49.238;6.698;2022-09-24T01:06:17;11.93;;;7.10;;
9898;SDS011;4988;49.238;6.698;2022-09-24T01:08:42;10.80;;;6.80;;
9898;SDS011;4988;49.238;6.698;2022-09-24T01:23:11;10.93;;;7.17;;
9898;SDS011;4988;49.238;6.698;2022-09-24T01:31:24;11.73;;;7.90;;
9898;SDS011;4988;49.238;6.698;2022-09-24T01:33:53;12.60;;;8.10;;
9898;SDS011;4988;49.238;6.698;2022-09-24T01:36:21;13.57;;;7.90;;
9898;SDS011;4988;49.238;6.698;2022-09-24T01:38:48;11.57;;;7.40;;
9898;SDS011;4988;49.238;6.698;2022-09-24T01:41:16;13.23;;;7.27;;
9898;SDS011;4988;49.238;6.698;2022-09-24T01:43:43;12.57;;;7.80;;
9898;SDS011;4988;49.238;6.698;2022-09-24T01:46:09;10.93;;;7.57;;
9898;SDS011;4988;49.238;6.698;2022-09-24T01:48:38;12.97;;;7.37;;
9898;SDS011;4988;49.238;6.698;2022-09-24T01:51:07;11.50;;;7.93;;
9898;SDS011;4988;49.238;6.698;2022-09-24T01:53:41;13.23;;;7.97;;
9898;SDS011;4988;49.238;6.698;2022-09-24T01:56:37;11.40;;;7.23;;
9898;SDS011;4988;49.238;6.698;2022-09-24T01:59:13;12.80;;;8.07;;
9898;SDS011;4988;49.238;6.698;2022-09-24T02:04:41;15.13;;;8.67;;
9898;SDS011;4988;49.238;6.698;2022-09-24T02:07:10;15.63;;;8.70;;
9898;SDS011;4988;49.238;6.698;2022-09-24T02:09:43;18.73;;;8.97;;
9898;SDS011;4988;49.238;6.698;2022-09-24T02:12:19;14.37;;;9.07;;
9898;SDS011;4988;49.238;6.698;2022-09-24T02:14:54;13.80;;;8.17;;
9898;SDS011;4988;49.238;6.698;2022-09-24T02:17:27;16.50;;;9.23;;
9898;SDS011;4988;49.238;6.698;2022-09-24T02:19:57;12.80;;;8.53;;
9898;SDS011;4988;49.238;6.698;2022-09-24T02:22:25;13.67;;;8.20;;
9898;SDS011;4988;49.238;6.698;2022-09-24T02:24:54;11.60;;;7.63;;
9898;SDS011;4988;49.238;6.698;2022-09-24T02:27:25;15.07;;;8.10;;
9898;SDS011;4988;49.238;6.698;2022-09-24T02:29:55;10.67;;;7.33;;
9898;SDS011;4988;49.238;6.698;2022-09-24T02:32:21;11.73;;;7.77;;
9898;SDS011;4988;49.238;6.698;2022-09-24T02:34:50;12.43;;;8.03;;
9898;SDS011;4988;49.238;6.698;2022-09-24T02:37:20;11.97;;;7.63;;
9898;SDS011;4988;49.238;6.698;2022-09-24T02:39:47;14.33;;;8.00;;
9898;SDS011;4988;49.238;6.698;2022-09-24T02:42:13;13.00;;;8.13;;
9898;SDS011;4988;49.238;6.698;2022-09-24T02:44:41;12.07;;;7.70;;
9898;SDS011;4988;49.238;6.698;2022-09-24T02:47:06;14.20;;;7.90;;
9898;SDS011;4988;49.238;6.698;2022-09-24T02:49:31;13.20;;;7.80;;
9898;SDS011;4988;49.238;6.698;2022-09-24T02:51:57;14.43;;;7.90;;
9898;SDS011;4988;49.238;6.698;2022-09-24T02:54:22;13.47;;;7.97;;
9898;SDS011;4988;49.238;6.698;2022-09-24T02:56:49;11.87;;;7.60;;
9898;SDS011;4988;49.238;6.698;2022-09-24T02:59:15;13.50;;;7.90;;
9898;SDS011;4988;49.238;6.698;2022-09-24T03:01:40;13.47;;;7.57;;
9898;SDS011;4988;49.238;6.698;2022-09-24T03:04:05;12.70;;;7.63;;
9898;SDS011;4988;49.238;6.698;2022-09-24T03:06:31;11.73;;;8.17;;
9898;SDS011;4988;49.238;6.698;2022-09-24T03:08:56;11.80;;;7.63;;
9898;SDS011;4988;49.238;6.698;2022-09-24T03:11:23;15.33;;;8.27;;
9898;SDS011;4988;49.238;6.698;2022-09-24T03:13:49;13.03;;;7.57;;
9898;SDS011;4988;49.238;6.698;2022-09-24T03:16:16;12.40;;;8.00;;
9898;SDS011;4988;49.238;6.698;2022-09-24T03:18:42;13.40;;;8.40;;
9898;SDS011;4988;49.238;6.698;2022-09-24T03:21:11;12.43;;;7.63;;
9898;SDS011;4988;49.238;6.698;2022-09-24T03:23:38;13.03;;;7.87;;
9898;SDS011;4988;49.238;6.698;2022-09-24T03:26:04;12.73;;;7.93;;
9898;SDS011;4988;49.238;6.698;2022-09-24T03:28:29;14.13;;;7.87;;
9898;SDS011;4988;49.238;6.698;2022-09-24T03:30:55;14.13;;;8.00;;
9898;SDS011;4988;49.238;6.698;2022-09-24T03:33:31;14.47;;;8.00;;
9898;SDS011;4988;49.238;6.698;2022-09-24T03:36:01;12.13;;;7.93;;
9898;SDS011;4988;49.238;6.698;2022-09-24T03:38:30;13.73;;;8.40;;
9898;SDS011;4988;49.238;6.698;2022-09-24T03:40:57;13.33;;;8.33;;
9898;SDS011;4988;49.238;6.698;2022-09-24T03:43:24;14.00;;;8.97;;
9898;SDS011;4988;49.238;6.698;2022-09-24T03:45:50;14.50;;;8.50;;
9898;SDS011;4988;49.238;6.698;2022-09-24T03:48:16;11.73;;;7.50;;
9898;SDS011;4988;49.238;6.698;2022-09-24T03:50:42;14.80;;;8.00;;
9898;SDS011;4988;49.238;6.698;2022-09-24T03:53:08;18.23;;;8.90;;
9898;SDS011;4988;49.238;6.698;2022-09-24T03:55:34;13.30;;;8.40;;
9898;SDS011;4988;49.238;6.698;2022-09-24T03:58:00;13.00;;;8.20;;
9898;SDS011;4988;49.238;6.698;2022-09-24T04:00:25;10.87;;;7.40;;
9898;SDS011;4988;49.238;6.698;2022-09-24T04:02:51;11.83;;;7.80;;
9898;SDS011;4988;49.238;6.698;2022-09-24T04:05:16;11.53;;;7.40;;
9898;SDS011;4988;49.238;6.698;2022-09-24T04:07:42;11.80;;;7.77;;
9898;SDS011;4988;49.238;6.698;2022-09-24T04:10:08;9.97;;;6.97;;
9898;SDS011;4988;49.238;6.698;2022-09-24T04:12:34;14.37;;;7.10;;
9898;SDS011;4988;49.238;6.698;2022-09-24T04:15:00;13.37;;;8.20;;
9898;SDS011;4988;49.238;6.698;2022-09-24T04:17:27;12.33;;;7.93;;
9898;SDS011;4988;49.238;6.698;2022-09-24T04:19:56;12.33;;;7.90;;
9898;SDS011;4988;49.238;6.698;2022-09-24T04:22:21;15.27;;;8.93;;
9898;SDS011;4988;49.238;6.698;2022-09-24T04:24:47;18.77;;;10.47;;
9898;SDS011;4988;49.238;6.698;2022-09-24T04:27:12;11.93;;;8.77;;
9898;SDS011;4988;49.238;6.698;2022-09-24T04:29:37;15.03;;;8.63;;
9898;SDS011;4988;49.238;6.698;2022-09-24T04:32:03;13.33;;;8.80;;
9898;SDS011;4988;49.238;6.698;2022-09-24T04:34:28;13.53;;;8.50;;
9898;SDS011;4988;49.238;6.698;2022-09-24T04:36:53;14.60;;;7.73;;
9898;SDS011;4988;49.238;6.698;2022-09-24T04:39:18;12.20;;;8.27;;
9898;SDS011;4988;49.238;6.698;2022-09-24T04:41:50;14.37;;;8.27;;
9898;SDS011;4988;49.238;6.698;2022-09-24T04:44:15;14.80;;;8.23;;
9898;SDS011;4988;49.238;6.698;2022-09-24T04:46:41;18.10;;;7.93;;
9898;SDS011;4988;49.238;6.698;2022-09-24T04:49:07;15.63;;;8.10;;
9898;SDS011;4988;49.238;6.698;2022-09-24T04:51:33;14.83;;;8.43;;
9898;SDS011;4988;49.238;6.698;2022-09-24T04:53:59;15.30;;;8.30;;
9898;SDS011;4988;49.238;6.698;2022-09-24T04:56:26;12.43;;;7.70;;
9898;SDS011;4988;49.238;6.698;2022-09-24T04:58:52;14.43;;;7.60;;
9898;SDS011;4988;49.238;6.698;2022-09-24T05:01:18;12.67;;;7.87;;
9898;SDS011;4988;49.238;6.698;2022-09-24T05:03:44;16.20;;;8.30;;
9898;SDS011;4988;49.238;6.698;2022-09-24T05:06:10;12.50;;;7.97;;
9898;SDS011;4988;49.238;6.698;2022-09-24T05:08:35;16.83;;;8.90;;
9898;SDS011;4988;49.238;6.698;2022-09-24T05:11:00;15.10;;;7.87;;
9898;SDS011;4988;49.238;6.698;2022-09-24T05:13:26;12.93;;;7.60;;
9898;SDS011;4988;49.238;6.698;2022-09-24T05:15:52;13.63;;;8.07;;
9898;SDS011;4988;49.238;6.698;2022-09-24T05:18:17;11.33;;;7.97;;
9898;SDS011;4988;49.238;6.698;2022-09-24T05:20:43;13.63;;;7.60;;
9898;SDS011;4988;49.238;6.698;2022-09-24T05:23:08;12.40;;;8.13;;
9898;SDS011;4988;49.238;6.698;2022-09-24T05:25:34;11.33;;;7.53;;
9898;SDS011;4988;49.238;6.698;2022-09-24T05:28:19;13.93;;;7.83;;
9898;SDS011;4988;49.238;6.698;2022-09-24T05:30:45;12.40;;;8.70;;
9898;SDS011;4988;49.238;6.698;2022-09-24T05:33:11;13.20;;;8.60;;
9898;SDS011;4988;49.238;6.698;2022-09-24T05:35:37;13.90;;;8.97;;
9898;SDS011;4988;49.238;6.698;2022-09-24T05:38:02;15.90;;;8.90;;
9898;SDS011;4988;49.238;6.698;2022-09-24T05:40:27;15.17;;;8.50;;
9898;SDS011;4988;49.238;6.698;2022-09-24T05:43:11;14.20;;;8.20;;
9898;SDS011;4988;49.238;6.698;2022-09-24T05:45:37;12.97;;;8.20;;
9898;SDS011;4988;49.238;6.698;2022-09-24T05:48:02;14.97;;;8.53;;
9898;SDS011;4988;49.238;6.698;2022-09-24T05:50:28;15.37;;;8.77;;
9898;SDS011;4988;49.238;6.698;2022-09-24T05:52:54;13.13;;;8.47;;
9898;SDS011;4988;49.238;6.698;2022-09-24T05:55:21;14.20;;;7.90;;
9898;SDS011;4988;49.238;6.698;2022-09-24T05:57:46;16.60;;;7.73;;
9898;SDS011;4988;49.238;6.698;2022-09-24T06:00:12;15.37;;;8.53;;
9898;SDS011;4988;49.238;6.698;2022-09-24T06:02:38;11.90;;;7.73;;
9898;SDS011;4988;49.238;6.698;2022-09-24T06:05:03;12.27;;;7.73;;
9898;SDS011;4988;49.238;6.698;2022-09-24T06:07:29;14.73;;;8.17;;
9898;SDS011;4988;49.238;6.698;2022-09-24T06:09:55;14.77;;;8.33;;
9898;SDS011;4988;49.238;6.698;2022-09-24T06:12:23;12.13;;;8.30;;
9898;SDS011;4988;49.238;6.698;2022-09-24T06:14:48;14.93;;;8.27;;
9898;SDS011;4988;49.238;6.698;2022-09-24T06:17:13;15.17;;;8.50;;
9898;SDS011;4988;49.238;6.698;2022-09-24T06:19:39;13.00;;;7.83;;
9898;SDS011;4988;49.238;6.698;2022-09-24T06:22:04;17.13;;;8.97;;
9898;SDS011;4988;49.238;6.698;2022-09-24T06:24:30;16.53;;;8.83;;
9898;SDS011;4988;49.238;6.698;2022-09-24T06:26:55;15.07;;;8.47;;
9898;SDS011;4988;49.238;6.698;2022-09-24T06:29:22;18.97;;;8.77;;
9898;SDS011;4988;49.238;6.698;2022-09-24T06:31:47;14.03;;;8.47;;
9898;SDS011;4988;49.238;6.698;2022-09-24T06:34:12;16.93;;;8.63;;
9898;SDS011;4988;49.238;6.698;2022-09-24T06:36:39;18.87;;;9.10;;
9898;SDS011;4988;49.238;6.698;2022-09-24T06:39:04;15.27;;;9.10;;
9898;SDS011;4988;49.238;6.698;2022-09-24T06:41:31;15.30;;;8.90;;
9898;SDS011;4988;49.238;6.698;2022-09-24T06:43:56;17.30;;;8.63;;
9898;SDS011;4988;49.238;6.698;2022-09-24T06:46:22;16.23;;;9.73;;
9898;SDS011;4988;49.238;6.698;2022-09-24T06:48:49;15.47;;;9.53;;
9898;SDS011;4988;49.238;6.698;2022-09-24T06:51:15;15.70;;;9.33;;
9898;SDS011;4988;49.238;6.698;2022-09-24T06:53:40;18.70;;;11.20;;
9898;SDS011;4988;49.238;6.698;2022-09-24T06:56:05;23.00;;;12.20;;
9898;SDS011;4988;49.238;6.698;2022-09-24T06:58:31;21.33;;;11.73;;
9898;SDS011;4988;49.238;6.698;2022-09-24T07:00:58;27.13;;;15.23;;
9898;SDS011;4988;49.238;6.698;2022-09-24T07:03:26;22.17;;;12.30;;
9898;SDS011;4988;49.238;6.698;2022-09-24T07:05:53;17.60;;;10.57;;
9898;SDS011;4988;49.238;6.698;2022-09-24T07:08:19;18.20;;;11.37;;
9898;SDS011;4988;49.238;6.698;2022-09-24T07:10:45;16.03;;;10.57;;
9898;SDS011;4988;49.238;6.698;2022-09-24T07:13:13;19.60;;;11.07;;
9898;SDS011;4988;49.238;6.698;2022-09-24T07:15:39;20.93;;;11.03;;
9898;SDS011;4988;49.238;6.698;2022-09-24T07:18:05;21.10;;;11.87;;
9898;SDS011;4988;49.238;6.698;2022-09-24T07:20:30;21.00;;;11.73;;
9898;SDS011;4988;49.238;6.698;2022-09-24T07:22:57;16.77;;;10.73;;
9898;SDS011;4988;49.238;6.698;2022-09-24T07:25:22;22.23;;;12.27;;
9898;SDS011;4988;49.238;6.698;2022-09-24T07:27:48;16.83;;;11.10;;
9898;SDS011;4988;49.238;6.698;2022-09-24T07:30:13;22.00;;;12.27;;
9898;SDS011;4988;49.238;6.698;2022-09-24T07:32:39;22.67;;;13.03;;
9898;SDS011;4988;49.238;6.698;2022-09-24T07:35:04;24.63;;;12.93;;
9898;SDS011;4988;49.238;6.698;2022-09-24T07:37:30;20.13;;;12.03;;
9898;SDS011;4988;49.238;6.698;2022-09-24T07:39:58;20.53;;;12.33;;
9898;SDS011;4988;49.238;6.698;2022-09-24T07:42:24;23.87;;;12.23;;
9898;SDS011;4988;49.238;6.698;2022-09-24T07:44:50;24.43;;;13.73;;
9898;SDS011;4988;49.238;6.698;2022-09-24T07:47:15;24.43;;;13.77;;
9898;SDS011;4988;49.238;6.698;2022-09-24T07:49:41;22.27;;;12.70;;
9898;SDS011;4988;49.238;6.698;2022-09-24T07:52:06;17.37;;;11.63;;
9898;SDS011;4988;49.238;6.698;2022-09-24T07:54:32;23.53;;;12.53;;
9898;SDS011;4988;49.238;6.698;2022-09-24T07:56:57;21.90;;;12.93;;
9898;SDS011;4988;49.238;6.698;2022-09-24T07:59:23;21.37;;;12.87;;
9898;SDS011;4988;49.238;6.698;2022-09-24T08:01:49;19.83;;;12.37;;
9898;SDS011;4988;49.238;6.698;2022-09-24T08:04:14;23.47;;;13.30;;
9898;SDS011;4988;49.238;6.698;2022-09-24T08:06:39;20.13;;;12.10;;
9898;SDS011;4988;49.238;6.698;2022-09-24T08:09:05;18.90;;;12.10;;
9898;SDS011;4988;49.238;6.698;2022-09-24T08:11:31;23.60;;;12.60;;
9898;SDS011;4988;49.238;6.698;2022-09-24T08:13:57;21.07;;;12.70;;
9898;SDS011;4988;49.238;6.698;2022-09-24T08:16:24;27.07;;;13.50;;
9898;SDS011;4988;49.238;6.698;2022-09-24T08:18:50;22.47;;;13.43;;
9898;SDS011;4988;49.238;6.698;2022-09-24T08:21:17;24.07;;;13.37;;
9898;SDS011;4988;49.238;6.698;2022-09-24T08:23:42;23.10;;;13.27;;
9898;SDS011;4988;49.238;6.698;2022-09-24T08:26:11;21.00;;;12.93;;
9898;SDS011;4988;49.238;6.698;2022-09-24T08:28:37;22.07;;;12.57;;
9898;SDS011;4988;49.238;6.698;2022-09-24T08:31:06;23.43;;;13.93;;
9898;SDS011;4988;49.238;6.698;2022-09-24T08:33:34;26.83;;;14.67;;
9898;SDS011;4988;49.238;6.698;2022-09-24T08:36:01;24.13;;;14.67;;
9898;SDS011;4988;49.238;6.698;2022-09-24T08:38:27;22.93;;;13.80;;
9898;SDS011;4988;49.238;6.698;2022-09-24T08:43:39;22.93;;;13.70;;
9898;SDS011;4988;49.238;6.698;2022-09-24T08:46:20;21.40;;;12.80;;
9898;SDS011;4988;49.238;6.698;2022-09-24T08:49:18;26.20;;;13.50;;
9898;SDS011;4988;49.238;6.698;2022-09-24T08:51:53;20.40;;;13.00;;
9898;SDS011;4988;49.238;6.698;2022-09-24T08:54:26;23.13;;;14.30;;
9898;SDS011;4988;49.238;6.698;2022-09-24T08:56:54;23.93;;;13.60;;
9898;SDS011;4988;49.238;6.698;2022-09-24T08:59:23;19.47;;;12.80;;
9898;SDS011;4988;49.238;6.698;2022-09-24T09:09:49;25.37;;;14.97;;
9898;SDS011;4988;49.238;6.698;2022-09-24T09:12:21;23.07;;;14.33;;
9898;SDS011;4988;49.238;6.698;2022-09-24T09:19:58;24.00;;;13.30;;
9898;SDS011;4988;49.238;6.698;2022-09-24T09:22:28;25.97;;;12.67;;
9898;SDS011;4988;49.238;6.698;2022-09-24T09:24:59;21.83;;;11.97;;
9898;SDS011;4988;49.238;6.698;2022-09-24T09:27:37;21.43;;;13.17;;
9898;SDS011;4988;49.238;6.698;2022-09-24T09:30:03;20.20;;;12.73;;
9898;SDS011;4988;49.238;6.698;2022-09-24T09:38:29;22.00;;;12.43;;
9898;SDS011;4988;49.238;6.698;2022-09-24T09:43:34;20.70;;;12.67;;
9898;SDS011;4988;49.238;6.698;2022-09-24T09:48:27;23.87;;;12.77;;
9898;SDS011;4988;49.238;6.698;2022-09-24T09:51:05;22.93;;;13.23;;
9898;SDS011;4988;49.238;6.698;2022-09-24T09:53:31;22.17;;;12.27;;
9898;SDS011;4988;49.238;6.698;2022-09-24T09:55:57;21.27;;;12.07;;
9898;SDS011;4988;49.238;6.698;2022-09-24T09:58:25;19.83;;;12.40;;
9898;SDS011;4988;49.238;6.698;2022-09-24T10:01:01;20.87;;;12.67;;
9898;SDS011;4988;49.238;6.698;2022-09-24T10:06:10;21.97;;;12.97;;
9898;SDS011;4988;49.238;6.698;2022-09-24T10:08:37;19.77;;;12.13;;
9898;SDS011;4988;49.238;6.698;2022-09-24T10:11:04;19.93;;;11.83;;
9898;SDS011;4988;49.238;6.698;2022-09-24T10:13:32;17.63;;;12.03;;
9898;SDS011;4988;49.238;6.698;2022-09-24T10:15:58;22.03;;;13.17;;
9898;SDS011;4988;49.238;6.698;2022-09-24T10:18:32;18.27;;;11.93;;
9898;SDS011;4988;49.238;6.698;2022-09-24T10:21:03;22.77;;;12.03;;
9898;SDS011;4988;49.238;6.698;2022-09-24T10:23:33;21.43;;;12.30;;
9898;SDS011;4988;49.238;6.698;2022-09-24T10:26:01;20.50;;;11.53;;
9898;SDS011;4988;49.238;6.698;2022-09-24T10:28:28;19.93;;;11.77;;
9898;SDS011;4988;49.238;6.698;2022-09-24T10:31:16;18.33;;;11.87;;
9898;SDS011;4988;49.238;6.698;2022-09-24T10:33:48;18.80;;;12.67;;
9898;SDS011;4988;49.238;6.698;2022-09-24T10:36:20;19.67;;;12.10;;
9898;SDS011;4988;49.238;6.698;2022-09-24T10:38:48;23.13;;;12.10;;
9898;SDS011;4988;49.238;6.698;2022-09-24T10:41:27;19.63;;;11.27;;
9898;SDS011;4988;49.238;6.698;2022-09-24T10:43:55;19.30;;;11.20;;
9898;SDS011;4988;49.238;6.698;2022-09-24T10:51:55;17.80;;;11.00;;
9898;SDS011;4988;49.238;6.698;2022-09-24T10:58:01;17.07;;;10.80;;
9898;SDS011;4988;49.238;6.698;2022-09-24T11:00:38;18.20;;;10.90;;
9898;SDS011;4988;49.238;6.698;2022-09-24T11:05:49;18.20;;;9.80;;
9898;SDS011;4988;49.238;6.698;2022-09-24T11:13:47;15.33;;;10.00;;
9898;SDS011;4988;49.238;6.698;2022-09-24T11:22:12;16.53;;;9.57;;
9898;SDS011;4988;49.238;6.698;2022-09-24T11:25:07;20.77;;;10.80;;
9898;SDS011;4988;49.238;6.698;2022-09-24T11:30:19;16.07;;;9.10;;
9898;SDS011;4988;49.238;6.698;2022-09-24T11:38:21;14.17;;;7.53;;
9898;SDS011;4988;49.238;6.698;2022-09-24T11:41:21;10.87;;;7.50;;
9898;SDS011;4988;49.238;6.698;2022-09-24T11:44:05;12.53;;;7.50;;
9898;SDS011;4988;49.238;6.698;2022-09-24T11:46:45;14.33;;;7.10;;
9898;SDS011;4988;49.238;6.698;2022-09-24T11:55:09;11.87;;;5.30;;
9898;SDS011;4988;49.238;6.698;2022-09-24T11:57:19;7.90;;;4.80;;
9898;SDS011;4988;49.238;6.698;2022-09-24T12:02:40;10.83;;;4.70;;
9898;SDS011;4988;49.238;6.698;2022-09-24T12:05:13;10.20;;;4.53;;
9898;SDS011;4988;49.238;6.698;2022-09-24T12:08:04;8.90;;;4.87;;
9898;SDS011;4988;49.238;6.698;2022-09-24T12:10:42;10.77;;;5.23;;
9898;SDS011;4988;49.238;6.698;2022-09-24T12:19:08;11.03;;;4.77;;
9898;SDS011;4988;49.238;6.698;2022-09-24T12:21:41;11.13;;;4.90;;
9898;SDS011;4988;49.238;6.698;2022-09-24T12:26:41;12.17;;;5.10;;
9898;SDS011;4988;49.238;6.698;2022-09-24T12:29:20;16.27;;;5.40;;
9898;SDS011;4988;49.238;6.698;2022-09-24T12:37:56;12.43;;;4.70;;
9898;SDS011;4988;49.238;6.698;2022-09-24T12:40:33;11.03;;;5.60;;
9898;SDS011;4988;49.238;6.698;2022-09-24T12:43:27;12.93;;;5.10;;
9898;SDS011;4988;49.238;6.698;2022-09-24T12:45:58;9.83;;;5.07;;
9898;SDS011;4988;49.238;6.698;2022-09-24T12:48:26;9.93;;;5.17;;
9898;SDS011;4988;49.238;6.698;2022-09-24T12:50:58;14.57;;;5.70;;
9898;SDS011;4988;49.238;6.698;2022-09-24T12:53:36;10.17;;;4.60;;
9898;SDS011;4988;49.238;6.698;2022-09-24T12:56:05;9.00;;;4.60;;
9898;SDS011;4988;49.238;6.698;2022-09-24T12:58:40;13.07;;;4.90;;
9898;SDS011;4988;49.238;6.698;2022-09-24T13:03:37;10.37;;;5.00;;
9898;SDS011;4988;49.238;6.698;2022-09-24T13:06:21;10.93;;;4.80;;
9898;SDS011;4988;49.238;6.698;2022-09-24T13:08:55;11.07;;;4.40;;
9898;SDS011;4988;49.238;6.698;2022-09-24T13:11:23;11.77;;;4.90;;
9898;SDS011;4988;49.238;6.698;2022-09-24T13:13:57;9.90;;;5.27;;
9898;SDS011;4988;49.238;6.698;2022-09-24T13:16:24;13.13;;;5.20;;
9898;SDS011;4988;49.238;6.698;2022-09-24T13:18:53;12.50;;;5.60;;
9898;SDS011;4988;49.238;6.698;2022-09-24T13:21:24;13.13;;;4.83;;
9898;SDS011;4988;49.238;6.698;2022-09-24T13:23:51;11.17;;;5.10;;
9898;SDS011;4988;49.238;6.698;2022-09-24T13:36:36;5.03;;;2.97;;
9898;SDS011;4988;49.238;6.698;2022-09-24T13:39:18;9.13;;;2.80;;
9898;SDS011;4988;49.238;6.698;2022-09-24T13:44:42;4.43;;;2.87;;
9898;SDS011;4988;49.238;6.698;2022-09-24T13:55:43;6.90;;;2.90;;
9898;SDS011;4988;49.238;6.698;2022-09-24T13:58:33;5.43;;;2.80;;
9898;SDS011;4988;49.238;6.698;2022-09-24T14:01:03;4.17;;;2.63;;
9898;SDS011;4988;49.238;6.698;2022-09-24T14:03:34;5.17;;;2.63;;
9898;SDS011;4988;49.238;6.698;2022-09-24T14:06:08;2.93;;;2.47;;
9898;SDS011;4988;49.238;6.698;2022-09-24T14:08:34;5.20;;;2.80;;
9898;SDS011;4988;49.238;6.698;2022-09-24T14:11:23;7.27;;;2.90;;
9898;SDS011;4988;49.238;6.698;2022-09-24T14:13:51;5.47;;;2.80;;
9898;SDS011;4988;49.238;6.698;2022-09-24T14:16:20;4.33;;;2.70;;
9898;SDS011;4988;49.238;6.698;2022-09-24T14:18:47;8.83;;;3.30;;
9898;SDS011;4988;49.238;6.698;2022-09-24T14:26:29;7.47;;;3.50;;
9898;SDS011;4988;49.238;6.698;2022-09-24T14:28:57;5.77;;;3.10;;
9898;SDS011;4988;49.238;6.698;2022-09-24T14:31:24;4.17;;;3.07;;
9898;SDS011;4988;49.238;6.698;2022-09-24T14:33:50;6.63;;;3.13;;
9898;SDS011;4988;49.238;6.698;2022-09-24T14:36:16;7.97;;;3.33;;
9898;SDS011;4988;49.238;6.698;2022-09-24T14:38:47;3.37;;;2.63;;
9898;SDS011;4988;49.238;6.698;2022-09-24T14:41:23;5.00;;;3.00;;
9898;SDS011;4988;49.238;6.698;2022-09-24T14:43:53;6.10;;;3.10;;
9898;SDS011;4988;49.238;6.698;2022-09-24T14:46:30;6.90;;;3.10;;
9898;SDS011;4988;49.238;6.698;2022-09-24T14:49:04;16.97;;;7.90;;
9898;SDS011;4988;49.238;6.698;2022-09-24T14:51:30;9.87;;;5.53;;
9898;SDS011;4988;49.238;6.698;2022-09-24T14:54:18;8.80;;;4.67;;
9898;SDS011;4988;49.238;6.698;2022-09-24T14:56:44;6.37;;;3.27;;
9898;SDS011;4988;49.238;6.698;2022-09-24T14:59:13;5.40;;;3.20;;
9898;SDS011;4988;49.238;6.698;2022-09-24T15:01:41;5.37;;;3.33;;
9898;SDS011;4988;49.238;6.698;2022-09-24T15:04:15;20.87;;;7.87;;
9898;SDS011;4988;49.238;6.698;2022-09-24T15:06:45;5.90;;;3.47;;
9898;SDS011;4988;49.238;6.698;2022-09-24T15:09:30;7.03;;;3.80;;
9898;SDS011;4988;49.238;6.698;2022-09-24T15:12:08;4.37;;;3.03;;
9898;SDS011;4988;49.238;6.698;2022-09-24T15:14:41;6.80;;;3.30;;
9898;SDS011;4988;49.238;6.698;2022-09-24T15:17:29;3.90;;;2.77;;
9898;SDS011;4988;49.238;6.698;2022-09-24T15:19:59;4.67;;;2.57;;
9898;SDS011;4988;49.238;6.698;2022-09-24T15:22:25;5.00;;;2.97;;
9898;SDS011;4988;49.238;6.698;2022-09-24T15:24:55;4.50;;;3.20;;
9898;SDS011;4988;49.238;6.698;2022-09-24T15:27:26;4.90;;;2.80;;
9898;SDS011;4988;49.238;6.698;2022-09-24T15:29:56;3.67;;;2.80;;
9898;SDS011;4988;49.238;6.698;2022-09-24T15:32:24;6.47;;;3.63;;
9898;SDS011;4988;49.238;6.698;2022-09-24T15:34:51;4.33;;;3.07;;
9898;SDS011;4988;49.238;6.698;2022-09-24T15:37:18;4.83;;;2.93;;
9898;SDS011;4988;49.238;6.698;2022-09-24T15:39:46;9.43;;;4.90;;
9898;SDS011;4988;49.238;6.698;2022-09-24T15:42:15;7.50;;;4.27;;
9898;SDS011;4988;49.238;6.698;2022-09-24T15:44:45;6.90;;;4.20;;
9898;SDS011;4988;49.238;6.698;2022-09-24T15:47:11;8.33;;;5.03;;
9898;SDS011;4988;49.238;6.698;2022-09-24T15:49:37;7.90;;;4.20;;
9898;SDS011;4988;49.238;6.698;2022-09-24T15:52:22;7.53;;;3.47;;
9898;SDS011;4988;49.238;6.698;2022-09-24T15:54:54;8.67;;;5.33;;
9898;SDS011;4988;49.238;6.698;2022-09-24T15:57:22;6.63;;;3.93;;
9898;SDS011;4988;49.238;6.698;2022-09-24T15:59:48;6.13;;;3.00;;
9898;SDS011;4988;49.238;6.698;2022-09-24T16:02:18;4.80;;;2.73;;
9898;SDS011;4988;49.238;6.698;2022-09-24T16:04:47;12.17;;;7.93;;
9898;SDS011;4988;49.238;6.698;2022-09-24T16:07:12;4.77;;;3.20;;
9898;SDS011;4988;49.238;6.698;2022-09-24T16:09:37;6.20;;;4.10;;
9898;SDS011;4988;49.238;6.698;2022-09-24T16:12:03;16.30;;;6.50;;
9898;SDS011;4988;49.238;6.698;2022-09-24T16:14:29;11.33;;;6.83;;
9898;SDS011;4988;49.238;6.698;2022-09-24T16:16:54;15.90;;;8.00;;
9898;SDS011;4988;49.238;6.698;2022-09-24T16:19:20;10.43;;;5.57;;
9898;SDS011;4988;49.238;6.698;2022-09-24T16:21:45;15.00;;;7.97;;
9898;SDS011;4988;49.238;6.698;2022-09-24T16:24:11;10.73;;;5.53;;
9898;SDS011;4988;49.238;6.698;2022-09-24T16:26:36;11.37;;;5.97;;
9898;SDS011;4988;49.238;6.698;2022-09-24T16:29:02;11.03;;;5.60;;
9898;SDS011;4988;49.238;6.698;2022-09-24T16:31:29;11.23;;;6.00;;
9898;SDS011;4988;49.238;6.698;2022-09-24T16:33:55;10.63;;;5.90;;
9898;SDS011;4988;49.238;6.698;2022-09-24T16:36:20;9.77;;;5.30;;
9898;SDS011;4988;49.238;6.698;2022-09-24T16:38:47;9.67;;;5.03;;
9898;SDS011;4988;49.238;6.698;2022-09-24T16:41:13;9.97;;;4.03;;
9898;SDS011;4988;49.238;6.698;2022-09-24T16:43:39;12.57;;;5.67;;
9898;SDS011;4988;49.238;6.698;2022-09-24T16:46:05;10.00;;;5.67;;
9898;SDS011;4988;49.238;6.698;2022-09-24T16:48:32;7.50;;;4.47;;
9898;SDS011;4988;49.238;6.698;2022-09-24T16:51:04;6.53;;;4.10;;
9898;SDS011;4988;49.238;6.698;2022-09-24T16:53:34;6.90;;;4.10;;
9898;SDS011;4988;49.238;6.698;2022-09-24T16:56:07;5.73;;;4.47;;
9898;SDS011;4988;49.238;6.698;2022-09-24T16:58:35;7.50;;;4.57;;
9898;SDS011;4988;49.238;6.698;2022-09-24T17:01:07;7.90;;;5.00;;
9898;SDS011;4988;49.238;6.698;2022-09-24T17:03:37;7.00;;;4.70;;
9898;SDS011;4988;49.238;6.698;2022-09-24T17:06:03;9.27;;;5.27;;
9898;SDS011;4988;49.238;6.698;2022-09-24T17:08:29;10.60;;;5.07;;
9898;SDS011;4988;49.238;6.698;2022-09-24T17:11:14;6.50;;;4.83;;
9898;SDS011;4988;49.238;6.698;2022-09-24T17:13:40;7.57;;;4.90;;
9898;SDS011;4988;49.238;6.698;2022-09-24T17:16:05;7.90;;;5.33;;
9898;SDS011;4988;49.238;6.698;2022-09-24T17:18:31;11.30;;;6.50;;
9898;SDS011;4988;49.238;6.698;2022-09-24T17:21:04;11.60;;;7.07;;
9898;SDS011;4988;49.238;6.698;2022-09-24T17:23:31;13.20;;;7.77;;
9898;SDS011;4988;49.238;6.698;2022-09-24T17:26:01;14.30;;;7.37;;
9898;SDS011;4988;49.238;6.698;2022-09-24T17:28:26;11.37;;;6.60;;